Time;durP1;ratioP1;P1;durP2;ratioP2;P2;SDS_P1;SDS_P2;PMS_P1;PMS_P2;Temp;Humidity;BMP_temperature;BMP_pressure;BME280_temperature;BME280_humidity;BME280_pressure;Samples;Min_cycle;Max_cycle;Signal;HPM_P1;HPM_P2
2022/11/24 00:00:30;;;;;;;;;;;;;;;4.58;100.00;95803.41;5094760;28;20419;-81
2022/11/24 00:02:56;;;;;;;;;;;;;;;4.58;100.00;95809.41;5094935;28;19991;-81
2022/11/24 00:05:22;;;;;;;;;;;;;;;4.59;100.00;95808.41;5094561;28;20399;-81
2022/11/24 00:07:48;;;;;;;;;;;;;;;4.61;100.00;95816.78;5093857;28;19971;-80
2022/11/24 00:10:14;;;;;;;;;;;;;;;4.61;100.00;95821.19;5093283;28;19953;-80
2022/11/24 00:12:40;;;;;;;;;;;;;;;4.59;100.00;95805.00;5076444;28;20052;-80
2022/11/24 00:15:06;;;;;;;;;;;;;;;4.60;100.00;95815.19;5094508;28;19972;-79
2022/11/24 00:17:32;;;;;;;;;;;;;;;4.62;100.00;95817.59;5082396;28;19953;-79
2022/11/24 00:19:58;;;;;;;;;;;;;;;4.63;100.00;95817.41;5093201;28;20404;-79
2022/11/24 00:22:23;;;;;;;;;;;;;;;4.63;100.00;95825.19;5076979;28;20471;-79
2022/11/24 00:24:49;;;;;;;;;;;;;;;4.64;100.00;95826.81;5093416;28;20337;-79
2022/11/24 00:27:16;;;;;;;;;;;;;;;4.65;100.00;95828.38;5076406;28;19976;-79
2022/11/24 00:29:41;;;;;;;;;;;;;;;4.65;100.00;95825.00;5093036;28;19944;-80
2022/11/24 00:32:07;;;;;;;;;;;;;;;4.67;100.00;95831.59;5076321;28;20038;-80
2022/11/24 00:34:33;;;;;;;;;;;;;;;4.68;100.00;95832.38;5094320;28;20087;-80
2022/11/24 00:36:59;;;;;;;;;;;;;;;4.68;100.00;95837.59;5094190;28;20015;-79
2022/11/24 00:39:25;;;;;;;;;;;;;;;4.67;100.00;95839.38;5093130;28;19947;-79
2022/11/24 00:41:51;;;;;;;;;;;;;;;4.66;100.00;95844.75;5092878;28;20037;-80
2022/11/24 00:44:17;;;;;;;;;;;;;;;4.63;100.00;95853.75;5094005;28;19950;-79
2022/11/24 00:46:43;;;;;;;;;;;;;;;4.62;100.00;95851.34;5059468;28;20059;-80
2022/11/24 00:49:08;;;;;;;;;;;;;;;4.60;100.00;95850.72;5075887;28;19954;-80
2022/11/24 00:51:34;;;;;;;;;;;;;;;4.58;100.00;95843.16;5092736;28;19978;-78
2022/11/24 00:54:01;;;;;;;;;;;;;;;4.60;100.00;95850.72;5092793;28;19952;-78
2022/11/24 00:56:28;;;;;;;;;;;;;;;4.59;100.00;95856.94;5093851;28;19941;-79
2022/11/24 00:58:54;;;;;;;;;;;;;;;4.59;100.00;95855.13;5093821;28;19951;-80
2022/11/24 01:01:21;;;;;;;;;;;;;;;4.58;100.00;95860.53;5079722;28;20269;-79
2022/11/24 01:03:47;;;;;;;;;;;;;;;4.57;100.00;95874.50;5071430;28;19955;-80
2022/11/24 01:06:21;;;;;;;;;;;;;;;4.52;100.00;95864.72;5093686;28;20316;-79
2022/11/24 01:08:47;;;;;;;;;;;;;;;4.51;100.00;95875.28;5092623;28;19960;-80
2022/11/24 01:11:18;;;;;;;;;;;;;;;4.49;100.00;95883.25;5094434;28;20403;-79
2022/11/24 01:13:45;;;;;;;;;;;;;;;4.47;100.00;95883.47;5092530;28;20349;-80
2022/11/24 01:16:15;;;;;;;;;;;;;;;4.45;100.00;95876.84;5075687;28;20445;-79
2022/11/24 01:18:41;;;;;;;;;;;;;;;4.42;100.00;95872.84;5093748;28;19950;-79
2022/11/24 01:21:07;;;;;;;;;;;;;;;4.40;100.00;95879.22;5093962;28;19952;-80
2022/11/24 01:23:33;;;;;;;;;;;;;;;4.38;100.00;95876.81;5086709;28;19948;-80
2022/11/24 01:25:59;;;;;;;;;;;;;;;4.37;100.00;95887.41;5092244;28;20434;-79
2022/11/24 01:28:24;;;;;;;;;;;;;;;4.35;100.00;95892.78;5092370;28;19951;-80
2022/11/24 01:30:57;;;;;;;;;;;;;;;4.32;100.00;95895.75;5093494;28;20311;-79
2022/11/24 01:33:24;;;;;;;;;;;;;;;4.31;100.00;95898.56;5091999;28;19977;-79
2022/11/24 01:35:50;;;;;;;;;;;;;;;4.27;100.00;95905.94;5093500;28;19978;-79
2022/11/24 01:38:16;;;;;;;;;;;;;;;4.22;100.00;95913.47;5058584;28;19961;-79
2022/11/24 01:40:41;;;;;;;;;;;;;;;4.20;100.00;95910.25;5074433;28;20407;-79
2022/11/24 01:43:18;;;;;;;;;;;;;;;4.19;100.00;95921.66;5083717;28;19958;-79
2022/11/24 01:45:44;;;;;;;;;;;;;;;4.17;100.00;95929.63;5066208;28;19952;-79
2022/11/24 01:48:14;;;;;;;;;;;;;;;4.16;100.00;95924.59;5091948;28;20415;-79
2022/11/24 01:50:41;;;;;;;;;;;;;;;4.17;100.00;95934.00;5092383;28;20297;-79
2022/11/24 01:53:09;;;;;;;;;;;;;;;4.17;100.00;95921.03;5093316;28;19958;-80
2022/11/24 01:55:36;;;;;;;;;;;;;;;4.16;100.00;95914.22;5093419;28;20010;-81
2022/11/24 01:58:02;;;;;;;;;;;;;;;4.14;100.00;95911.84;5092819;28;19950;-80
2022/11/24 02:00:28;;;;;;;;;;;;;;;4.13;100.00;95919.81;5095955;28;19996;-80
2022/11/24 02:02:54;;;;;;;;;;;;;;;4.11;100.00;95920.00;5079122;28;19979;-80
2022/11/24 02:05:32;;;;;;;;;;;;;;;4.09;100.00;95923.78;5078797;28;19971;-80
2022/11/24 02:07:59;;;;;;;;;;;;;;;4.06;100.00;95930.16;5095781;28;19971;-81
2022/11/24 02:10:25;;;;;;;;;;;;;;;4.04;100.00;95932.13;5095781;28;20417;-81
2022/11/24 02:12:53;;;;;;;;;;;;;;;4.02;100.00;95926.31;5078570;28;19955;-81
2022/11/24 02:15:19;;;;;;;;;;;;;;;3.99;100.00;95931.88;5096396;28;19967;-80
2022/11/24 02:17:45;;;;;;;;;;;;;;;3.96;100.00;95927.88;5096911;28;20303;-81
2022/11/24 02:20:12;;;;;;;;;;;;;;;3.93;100.00;95925.69;5079066;28;19967;-81
2022/11/24 02:22:38;;;;;;;;;;;;;;;3.92;100.00;95931.03;5095698;28;19965;-81
2022/11/24 02:25:03;;;;;;;;;;;;;;;3.90;100.00;95928.63;5095676;28;19999;-78
2022/11/24 02:27:29;;;;;;;;;;;;;;;3.88;100.00;95927.22;5095343;28;19971;-80
2022/11/24 02:29:55;;;;;;;;;;;;;;;3.86;100.00;95920.44;5095312;28;20316;-80
2022/11/24 02:32:22;;;;;;;;;;;;;;;3.85;100.00;95918.81;5095271;28;19959;-80
2022/11/24 02:34:48;;;;;;;;;;;;;;;3.81;100.00;95917.59;5078253;28;19981;-79
2022/11/24 02:37:13;;;;;;;;;;;;;;;3.79;100.00;95911.78;5078317;28;19995;-80
2022/11/24 02:39:39;;;;;;;;;;;;;;;3.77;100.00;95913.78;5078400;28;19993;-78
2022/11/24 02:42:08;;;;;;;;;;;;;;;3.75;100.00;95922.72;5096401;28;20400;-78
2022/11/24 02:44:36;;;;;;;;;;;;;;;3.70;100.00;95918.13;5094870;28;19952;-78
2022/11/24 02:47:04;;;;;;;;;;;;;;;3.69;100.00;95924.28;5095023;28;19951;-78
2022/11/24 02:49:30;;;;;;;;;;;;;;;3.63;100.00;95922.44;5094955;28;20058;-78
2022/11/24 02:51:56;;;;;;;;;;;;;;;3.60;100.00;95930.59;5094916;28;20024;-78
2022/11/24 02:54:22;;;;;;;;;;;;;;;3.58;100.00;95922.19;5095036;28;19992;-78
2022/11/24 02:56:47;;;;;;;;;;;;;;;3.55;100.00;95933.75;5095900;28;20388;-79
2022/11/24 02:59:13;;;;;;;;;;;;;;;3.52;100.00;95936.69;5094793;28;19987;-80
2022/11/24 03:01:39;;;;;;;;;;;;;;;3.48;100.00;95943.25;5094858;28;19996;-79
2022/11/24 03:04:05;;;;;;;;;;;;;;;3.46;100.00;95942.63;5091384;28;20408;-78
2022/11/24 03:06:31;;;;;;;;;;;;;;;3.45;100.00;95949.59;5094852;28;19963;-78
2022/11/24 03:08:57;;;;;;;;;;;;;;;3.45;100.00;95946.22;5077342;28;20402;-78
2022/11/24 03:11:23;;;;;;;;;;;;;;;3.43;100.00;95948.19;5077272;28;20003;-78
2022/11/24 03:13:48;;;;;;;;;;;;;;;3.41;100.00;95942.38;5095700;28;19990;-78
2022/11/24 03:16:14;;;;;;;;;;;;;;;3.40;100.00;95938.19;5094479;28;20346;-78
2022/11/24 03:18:40;;;;;;;;;;;;;;;3.38;100.00;95943.56;5090449;28;19946;-78
2022/11/24 03:21:06;;;;;;;;;;;;;;;3.36;100.00;95940.38;5077785;28;19956;-78
2022/11/24 03:23:32;;;;;;;;;;;;;;;3.34;100.00;95950.09;5094206;28;20071;-79
2022/11/24 03:26:08;;;;;;;;;;;;;;;3.34;100.00;95952.69;5094778;28;19958;-78
2022/11/24 03:28:34;;;;;;;;;;;;;;;3.34;100.00;95962.25;5083439;28;19945;-78
2022/11/24 03:31:01;;;;;;;;;;;;;;;3.35;100.00;95961.28;5095506;28;19971;-79
2022/11/24 03:33:27;;;;;;;;;;;;;;;3.37;100.00;95962.69;5095483;28;20413;-78
2022/11/24 03:35:53;;;;;;;;;;;;;;;3.39;100.00;95963.31;5095154;28;19973;-78
2022/11/24 03:38:19;;;;;;;;;;;;;;;3.42;100.00;95957.75;5095483;28;19959;-78
2022/11/24 03:40:44;;;;;;;;;;;;;;;3.44;100.00;95958.38;5095292;28;20000;-79
2022/11/24 03:43:10;;;;;;;;;;;;;;;3.47;100.00;95964.97;5095121;28;19946;-78
2022/11/24 03:45:36;;;;;;;;;;;;;;;3.50;100.00;95966.41;5095436;28;20335;-78
2022/11/24 03:48:02;;;;;;;;;;;;;;;3.52;100.00;95973.00;5076863;28;20045;-78
2022/11/24 03:50:28;;;;;;;;;;;;;;;3.54;100.00;95965.03;5093699;28;19951;-78
2022/11/24 03:52:54;;;;;;;;;;;;;;;3.55;100.00;95966.63;5093978;28;19945;-79
2022/11/24 03:55:20;;;;;;;;;;;;;;;3.55;100.00;95969.22;5093915;28;20454;-79
2022/11/24 03:57:46;;;;;;;;;;;;;;;3.56;100.00;95974.22;5093500;28;19965;-79
2022/11/24 04:00:12;;;;;;;;;;;;;;;3.59;100.00;95975.66;5076791;28;19956;-78
2022/11/24 04:02:38;;;;;;;;;;;;;;;3.62;100.00;95977.88;5093599;28;19978;-79
2022/11/24 04:05:04;;;;;;;;;;;;;;;3.66;100.00;95979.91;5094858;28;20411;-79
2022/11/24 04:07:30;;;;;;;;;;;;;;;3.69;100.00;95989.09;5095137;28;19960;-78
2022/11/24 04:09:56;;;;;;;;;;;;;;;3.75;100.00;95990.16;5094580;28;20371;-77
2022/11/24 04:15:07;;;;;;;;;;;;;;;3.81;100.00;95979.84;5094748;28;19968;-80
2022/11/24 04:17:33;;;;;;;;;;;;;;;3.83;100.00;95992.63;5093192;28;19975;-80
2022/11/24 04:19:59;;;;;;;;;;;;;;;3.85;100.00;95995.84;5094615;28;20008;-79
2022/11/24 04:22:25;;;;;;;;;;;;;;;3.83;100.00;95993.44;5094439;28;19986;-79
2022/11/24 04:24:51;;;;;;;;;;;;;;;3.85;100.00;96001.81;5093222;28;20046;-78
2022/11/24 04:27:16;;;;;;;;;;;;;;;3.85;100.00;96006.22;5094340;28;19988;-78
2022/11/24 04:29:42;;;;;;;;;;;;;;;3.84;100.00;96004.59;5094442;28;19947;-78
2022/11/24 04:32:08;;;;;;;;;;;;;;;3.83;100.00;96006.41;5092891;28;19958;-78
2022/11/24 04:34:34;;;;;;;;;;;;;;;3.82;100.00;95999.63;5092835;28;20014;-79
2022/11/24 04:37:00;;;;;;;;;;;;;;;3.83;100.00;96005.59;5092839;28;20435;-78
2022/11/24 04:39:26;;;;;;;;;;;;;;;3.84;100.00;96004.59;5093147;28;19974;-79
2022/11/24 04:41:52;;;;;;;;;;;;;;;3.79;100.00;96002.56;5093148;28;20466;-80
2022/11/24 04:44:18;;;;;;;;;;;;;;;3.77;100.00;96006.34;5094280;28;19998;-80
2022/11/24 04:46:44;;;;;;;;;;;;;;;3.74;100.00;96011.88;5075885;28;19959;-79
2022/11/24 04:49:13;;;;;;;;;;;;;;;3.71;100.00;96007.09;5075967;28;20476;-78
2022/11/24 04:51:39;;;;;;;;;;;;;;;3.69;100.00;96011.66;5092668;28;19960;-78
2022/11/24 04:54:08;;;;;;;;;;;;;;;3.66;100.00;96016.22;5094116;28;20321;-78
2022/11/24 04:56:34;;;;;;;;;;;;;;;3.62;100.00;96002.00;5075984;28;19972;-78
2022/11/24 04:59:00;;;;;;;;;;;;;;;3.61;100.00;96005.59;5092628;28;19955;-78
2022/11/24 05:01:26;;;;;;;;;;;;;;;3.60;100.00;96021.34;5092714;28;20338;-78
2022/11/24 05:03:53;;;;;;;;;;;;;;;3.58;100.00;96012.94;5075629;28;19956;-78
2022/11/24 05:06:19;;;;;;;;;;;;;;;3.57;100.00;96019.94;5093861;28;19953;-78
2022/11/24 05:08:48;;;;;;;;;;;;;;;3.56;100.00;96025.28;5093567;28;20019;-78
2022/11/24 05:11:14;;;;;;;;;;;;;;;3.56;100.00;96022.69;5093594;28;19951;-78
2022/11/24 05:13:40;;;;;;;;;;;;;;;3.56;100.00;96025.28;5093804;28;19987;-78
2022/11/24 05:16:06;;;;;;;;;;;;;;;3.56;100.00;96028.69;5086716;28;20035;-78
2022/11/24 05:18:32;;;;;;;;;;;;;;;3.55;100.00;96024.50;5093745;28;19986;-78
2022/11/24 05:20:58;;;;;;;;;;;;;;;3.57;100.00;96026.88;5092689;28;20315;-78
2022/11/24 05:23:24;;;;;;;;;;;;;;;3.59;100.00;96030.09;5093479;28;19953;-78
2022/11/24 05:25:50;;;;;;;;;;;;;;;3.59;100.00;96023.13;5092430;28;19947;-78
2022/11/24 05:28:16;;;;;;;;;;;;;;;3.59;100.00;96022.31;5093488;28;19991;-78
2022/11/24 05:30:42;;;;;;;;;;;;;;;3.59;100.00;96020.53;5078975;28;19968;-78
2022/11/24 05:33:17;;;;;;;;;;;;;;;3.58;100.00;96026.69;5094155;28;19953;-78
2022/11/24 05:35:44;;;;;;;;;;;;;;;3.56;100.00;96018.31;5096420;28;19960;-78
2022/11/24 05:38:10;;;;;;;;;;;;;;;3.53;100.00;96018.69;5096556;28;20412;-78
2022/11/24 05:40:36;;;;;;;;;;;;;;;3.52;100.00;96026.63;5097615;28;19956;-78
2022/11/24 05:43:02;;;;;;;;;;;;;;;3.50;100.00;96028.63;5096039;28;19948;-78
2022/11/24 05:45:28;;;;;;;;;;;;;;;3.48;100.00;96031.38;5097619;28;19958;-78
2022/11/24 05:47:54;;;;;;;;;;;;;;;3.47;100.00;96034.19;5096126;28;19950;-78
2022/11/24 05:50:21;;;;;;;;;;;;;;;3.47;100.00;96041.94;5096104;28;20410;-78
2022/11/24 05:52:47;;;;;;;;;;;;;;;3.47;100.00;96039.38;5097671;28;19955;-78
2022/11/24 05:55:14;;;;;;;;;;;;;;;3.48;100.00;96036.56;5097430;28;19951;-78
2022/11/24 05:57:40;;;;;;;;;;;;;;;3.50;100.00;96049.34;5097075;28;19956;-78
2022/11/24 06:00:08;;;;;;;;;;;;;;;3.51;100.00;96046.59;5097137;28;19948;-78
2022/11/24 06:02:34;;;;;;;;;;;;;;;3.54;100.00;96037.63;5097283;28;20000;-78
2022/11/24 06:05:00;;;;;;;;;;;;;;;3.55;100.00;96027.09;5095548;28;20416;-78
2022/11/24 06:07:26;;;;;;;;;;;;;;;3.58;100.00;96031.88;5095985;28;20333;-78
2022/11/24 06:09:52;;;;;;;;;;;;;;;3.61;100.00;96036.72;5095902;28;19945;-78
2022/11/24 06:12:19;;;;;;;;;;;;;;;3.65;100.00;96029.34;5095986;28;19978;-79
2022/11/24 06:14:45;;;;;;;;;;;;;;;3.69;100.00;96030.59;5097144;28;19953;-81
2022/11/24 06:17:11;;;;;;;;;;;;;;;3.73;100.00;96029.25;5095665;28;19974;-81
2022/11/24 06:19:37;;;;;;;;;;;;;;;3.76;100.00;96036.66;5097394;28;20335;-81
2022/11/24 06:22:03;;;;;;;;;;;;;;;3.79;100.00;96028.50;5097044;28;19947;-79
2022/11/24 06:24:29;;;;;;;;;;;;;;;3.84;100.00;96035.72;5095846;28;19961;-80
2022/11/24 06:26:54;;;;;;;;;;;;;;;3.88;100.00;96036.97;5096460;28;19959;-80
2022/11/24 06:29:20;;;;;;;;;;;;;;;3.90;100.00;96034.97;5095476;28;19958;-80
2022/11/24 06:31:46;;;;;;;;;;;;;;;3.92;100.00;96037.41;5095459;28;19963;-79
2022/11/24 06:34:12;;;;;;;;;;;;;;;3.95;100.00;96048.22;5095177;28;20340;-79
2022/11/24 06:36:38;;;;;;;;;;;;;;;3.97;100.00;96050.59;5095213;28;19964;-79
2022/11/24 06:39:05;;;;;;;;;;;;;;;3.98;100.00;96053.03;5095405;28;20471;-79
2022/11/24 06:41:31;;;;;;;;;;;;;;;4.01;100.00;96047.47;5094975;28;19955;-79
2022/11/24 06:43:57;;;;;;;;;;;;;;;4.03;100.00;96060.25;5094769;28;20337;-79
2022/11/24 06:46:23;;;;;;;;;;;;;;;4.05;100.00;96063.44;5096256;28;20035;-79
2022/11/24 06:48:52;;;;;;;;;;;;;;;4.06;100.00;96060.69;5078074;28;19946;-79
2022/11/24 06:51:18;;;;;;;;;;;;;;;4.10;100.00;96062.91;5095088;28;19946;-80
2022/11/24 06:53:44;;;;;;;;;;;;;;;4.10;100.00;96076.69;5095038;28;19940;-80
2022/11/24 06:56:11;;;;;;;;;;;;;;;4.12;100.00;96081.69;5094842;28;20321;-81
2022/11/24 06:58:44;;;;;;;;;;;;;;;4.13;100.00;96083.28;5096045;28;19940;-80
2022/11/24 07:01:18;;;;;;;;;;;;;;;4.14;100.00;96096.09;5096157;28;19950;-81
2022/11/24 07:03:44;;;;;;;;;;;;;;;4.14;100.00;96097.88;5084216;28;20388;-81
2022/11/24 07:06:10;;;;;;;;;;;;;;;4.15;100.00;96102.88;5094566;28;19959;-81
2022/11/24 07:08:35;;;;;;;;;;;;;;;4.16;100.00;96107.09;5094597;28;19984;-82
2022/11/24 07:11:05;;;;;;;;;;;;;;;4.17;100.00;96106.09;5094925;28;19992;-82
2022/11/24 07:13:31;;;;;;;;;;;;;;;4.17;100.00;96100.09;5061070;28;20422;-82
2022/11/24 07:15:57;;;;;;;;;;;;;;;4.19;100.00;96111.09;5094394;28;19965;-81
2022/11/24 07:18:23;;;;;;;;;;;;;;;4.18;100.00;96112.06;5084125;28;20472;-81
2022/11/24 07:20:49;;;;;;;;;;;;;;;4.20;100.00;96131.69;5092632;28;19946;-82
2022/11/24 07:23:14;;;;;;;;;;;;;;;4.23;100.00;96138.28;5094428;28;19986;-82
2022/11/24 07:25:40;;;;;;;;;;;;;;;4.26;100.00;96145.69;5077525;28;19992;-82
2022/11/24 07:28:06;;;;;;;;;;;;;;;4.26;100.00;96149.13;5076722;28;20376;-81
2022/11/24 07:30:32;;;;;;;;;;;;;;;4.27;100.00;96161.09;5121576;27;19951;-81
2022/11/24 07:32:59;;;;;;;;;;;;;;;4.30;100.00;96169.50;5094004;28;19952;-82
2022/11/24 07:35:25;;;;;;;;;;;;;;;4.33;100.00;96174.34;5077348;28;19950;-82
2022/11/24 07:37:55;;;;;;;;;;;;;;;4.35;100.00;96182.75;5077314;28;20304;-82
2022/11/24 07:40:21;;;;;;;;;;;;;;;4.37;100.00;96188.56;5077793;28;20429;-82
2022/11/24 07:42:47;;;;;;;;;;;;;;;4.38;100.00;96187.53;5093820;28;19964;-82
2022/11/24 07:45:13;;;;;;;;;;;;;;;4.40;100.00;96188.97;5060513;28;19986;-82
2022/11/24 07:47:39;;;;;;;;;;;;;;;4.43;100.00;96196.41;5095227;28;19988;-82
2022/11/24 07:50:08;;;;;;;;;;;;;;;4.44;100.00;96192.00;5076908;28;19946;-83
2022/11/24 07:52:34;;;;;;;;;;;;;;;4.47;100.00;96194.22;5094919;28;19950;-82
2022/11/24 07:55:00;;;;;;;;;;;;;;;4.47;100.00;96184.66;5093957;28;19961;-82
2022/11/24 07:57:27;;;;;;;;;;;;;;;4.51;100.00;96194.66;5076150;28;20059;-82
2022/11/24 07:59:54;;;;;;;;;;;;;;;4.53;100.00;96198.66;5095142;28;19948;-82
2022/11/24 08:02:20;;;;;;;;;;;;;;;4.54;100.00;96186.50;5094908;28;19953;-83
2022/11/24 08:04:46;;;;;;;;;;;;;;;4.58;100.00;96187.75;5079106;28;20052;-83
2022/11/24 08:07:12;;;;;;;;;;;;;;;4.58;100.00;96191.16;5089049;28;19950;-83
2022/11/24 08:09:37;;;;;;;;;;;;;;;4.60;100.00;96194.34;5077039;28;20043;-83
2022/11/24 08:12:04;;;;;;;;;;;;;;;4.61;100.00;96187.38;5076472;28;19956;-82
2022/11/24 08:14:29;;;;;;;;;;;;;;;4.63;100.00;96190.56;5093744;28;19953;-81
2022/11/24 08:16:56;;;;;;;;;;;;;;;4.66;100.00;96187.59;5094371;28;19962;-83
2022/11/24 08:19:22;;;;;;;;;;;;;;;4.70;100.00;96201.03;5094316;28;19947;-82
2022/11/24 08:21:48;;;;;;;;;;;;;;;4.75;100.00;96207.28;5093325;28;19972;-83
2022/11/24 08:24:15;;;;;;;;;;;;;;;4.79;100.00;96205.13;5094415;28;19951;-81
2022/11/24 08:26:41;;;;;;;;;;;;;;;4.81;100.00;96208.34;5094343;28;19943;-81
2022/11/24 08:29:07;;;;;;;;;;;;;;;4.83;100.00;96216.72;5094486;28;19957;-81
2022/11/24 08:31:34;;;;;;;;;;;;;;;4.85;100.00;96210.34;5094526;28;19952;-81
2022/11/24 08:34:01;;;;;;;;;;;;;;;4.86;100.00;96209.34;5092709;28;20081;-81
2022/11/24 08:36:27;;;;;;;;;;;;;;;4.91;100.00;96202.78;5093188;28;20351;-81
2022/11/24 08:38:54;;;;;;;;;;;;;;;4.92;100.00;96200.00;5059428;28;19949;-81
2022/11/24 08:41:20;;;;;;;;;;;;;;;4.97;100.00;96204.63;5094504;28;19960;-81
2022/11/24 08:43:46;;;;;;;;;;;;;;;5.01;100.00;96209.28;5092850;28;19947;-81
2022/11/24 08:46:15;;;;;;;;;;;;;;;5.09;100.00;96205.75;5085109;28;19952;-81
2022/11/24 08:48:42;;;;;;;;;;;;;;;5.17;100.00;96213.41;5093885;28;19981;-81
2022/11/24 08:51:12;;;;;;;;;;;;;;;5.25;100.00;96223.66;5092850;28;19952;-81
2022/11/24 08:53:38;;;;;;;;;;;;;;;5.32;100.00;96220.31;5076182;28;19954;-81
2022/11/24 08:56:05;;;;;;;;;;;;;;;5.41;100.00;96224.34;5094023;28;19966;-81
2022/11/24 08:58:31;;;;;;;;;;;;;;;5.48;100.00;96213.00;5093827;28;20312;-81
2022/11/24 09:01:23;;;;;;;;;;;;;;;5.60;100.00;96208.03;5079539;28;19946;-81
2022/11/24 09:03:49;;;;;;;;;;;;;;;5.70;100.00;96218.13;5091800;28;20336;-81
2022/11/24 09:06:21;;;;;;;;;;;;;;;5.74;100.00;96223.75;5093946;28;19972;-81
2022/11/24 09:08:47;;;;;;;;;;;;;;;5.76;100.00;96232.97;5091874;28;19950;-82
2022/11/24 09:11:15;;;;;;;;;;;;;;;5.75;100.00;96233.13;5075687;28;20065;-81
2022/11/24 09:13:41;;;;;;;;;;;;;;;5.71;100.00;96237.91;5093049;28;19944;-82
2022/11/24 09:16:08;;;;;;;;;;;;;;;5.72;100.00;96233.53;5093948;28;19958;-81
2022/11/24 09:18:35;;;;;;;;;;;;;;;5.74;100.00;96234.16;5093561;28;20306;-81
2022/11/24 09:21:17;;;;;;;;;;;;;;;5.89;100.00;96227.00;5092440;28;19948;-81
2022/11/24 09:23:44;;;;;;;;;;;;;;;6.15;100.00;96238.56;5092456;28;19951;-81
2022/11/24 09:26:12;;;;;;;;;;;;;;;6.32;100.00;96252.03;5075579;28;20408;-80
2022/11/24 09:28:38;;;;;;;;;;;;;;;6.59;100.00;96245.88;5092201;28;19953;-81
2022/11/24 09:31:06;;;;;;;;;;;;;;;6.71;100.00;96246.91;5093448;28;19958;-80
2022/11/24 09:33:32;;;;;;;;;;;;;;;6.71;100.00;96241.69;5092153;28;19982;-81
2022/11/24 09:35:58;;;;;;;;;;;;;;;6.61;100.00;96241.28;5092577;28;19949;-80
2022/11/24 09:38:24;;;;;;;;;;;;;;;6.56;100.00;96255.91;5092293;28;19957;-80
2022/11/24 09:40:51;;;;;;;;;;;;;;;6.64;100.00;96253.94;5092408;28;19954;-80
2022/11/24 09:43:26;;;;;;;;;;;;;;;6.94;100.00;96258.00;5093599;28;19958;-79
2022/11/24 09:45:57;;;;;;;;;;;;;;;7.24;100.00;96261.00;5093551;28;19945;-79
2022/11/24 09:48:28;;;;;;;;;;;;;;;7.79;100.00;96253.72;5093755;28;19952;-88
2022/11/24 09:50:56;;;;;;;;;;;;;;;8.40;100.00;96262.13;5093236;28;19948;-90
2022/11/24 09:53:22;;;;;;;;;;;;;;;8.91;100.00;96253.44;5093399;28;19953;-91
2022/11/24 09:55:54;;;;;;;;;;;;;;;9.22;100.00;96257.84;5075310;28;19950;-83
2022/11/24 09:58:20;;;;;;;;;;;;;;;9.14;98.03;96263.31;5075245;28;19971;-83
2022/11/24 10:00:47;;;;;;;;;;;;;;;8.89;97.49;96263.31;5092593;28;19944;-82
2022/11/24 10:03:23;;;;;;;;;;;;;;;8.59;95.91;96265.69;5092054;28;19957;-83
2022/11/24 10:05:50;;;;;;;;;;;;;;;8.28;97.55;96275.06;5092181;28;20330;-83
2022/11/24 10:08:54;;;;;;;;;;;;;;;7.95;96.77;96281.19;5091907;28;19950;-83
2022/11/24 10:11:30;;;;;;;;;;;;;;;7.52;99.15;96292.09;5050725;28;20313;-83
2022/11/24 10:14:06;;;;;;;;;;;;;;;7.28;100.00;96294.28;5034313;28;19949;-83
2022/11/24 10:16:41;;;;;;;;;;;;;;;7.16;100.00;96295.09;5067452;28;19960;-84
2022/11/24 10:19:12;;;;;;;;;;;;;;;7.06;100.00;96298.13;5094136;28;19961;-85
2022/11/24 10:21:46;;;;;;;;;;;;;;;7.00;100.00;96304.13;5096935;28;19956;-86
2022/11/24 10:24:26;;;;;;;;;;;;;;;6.91;100.00;96298.31;5096956;28;19955;-86
2022/11/24 10:26:59;;;;;;;;;;;;;;;6.84;100.00;96285.22;5095890;28;19948;-86
2022/11/24 10:29:39;;;;;;;;;;;;;;;6.86;100.00;96290.25;5095754;28;19951;-86
2022/11/24 10:32:12;;;;;;;;;;;;;;;6.89;100.00;96290.66;5095852;28;20404;-86
2022/11/24 10:34:40;;;;;;;;;;;;;;;6.85;100.00;96276.44;5095463;28;19987;-86
2022/11/24 10:37:09;;;;;;;;;;;;;;;6.87;100.00;96287.44;5095669;28;20446;-85
2022/11/24 10:39:38;;;;;;;;;;;;;;;6.93;100.00;96290.25;5096498;28;19946;-85
2022/11/24 10:42:04;;;;;;;;;;;;;;;6.96;100.00;96284.66;5096853;28;20432;-85
2022/11/24 10:44:30;;;;;;;;;;;;;;;7.08;100.00;96283.06;5095624;28;19956;-84
2022/11/24 10:46:56;;;;;;;;;;;;;;;7.13;100.00;96279.88;5095251;28;19950;-85
2022/11/24 10:49:28;;;;;;;;;;;;;;;7.33;100.00;96283.28;5095010;28;19958;-84
2022/11/24 10:52:14;;;;;;;;;;;;;;;7.57;100.00;96288.88;5081975;28;19951;-85
2022/11/24 10:55:00;;;;;;;;;;;;;;;7.75;100.00;96293.47;5096306;28;19958;-85
2022/11/24 10:57:36;;;;;;;;;;;;;;;7.85;100.00;96292.06;5094895;28;19956;-84
2022/11/24 11:00:17;;;;;;;;;;;;;;;7.97;100.00;96276.56;5096579;28;19954;-84
2022/11/24 11:02:43;;;;;;;;;;;;;;;7.91;100.00;96269.53;5095978;28;19944;-84
2022/11/24 11:05:24;;;;;;;;;;;;;;;7.83;100.00;96274.97;5095225;28;20398;-84
2022/11/24 11:08:08;;;;;;;;;;;;;;;7.74;100.00;96282.22;5083232;28;20435;-83
2022/11/24 11:10:34;;;;;;;;;;;;;;;7.64;100.00;96282.66;5095961;28;20301;-84
2022/11/24 11:13:18;;;;;;;;;;;;;;;7.57;100.00;96274.03;5095115;28;19958;-83
2022/11/24 11:15:44;;;;;;;;;;;;;;;7.51;100.00;96280.84;5096123;28;19954;-83
2022/11/24 11:18:14;;;;;;;;;;;;;;;7.47;100.00;96271.81;5094642;28;19970;-84
2022/11/24 11:20:47;;;;;;;;;;;;;;;7.47;100.00;96276.25;5094588;28;19968;-83
2022/11/24 11:23:15;;;;;;;;;;;;;;;7.45;100.00;96280.84;5095066;28;19951;-83
2022/11/24 11:25:42;;;;;;;;;;;;;;;7.45;100.00;96283.47;5094786;28;19948;-83
2022/11/24 11:28:20;;;;;;;;;;;;;;;7.47;100.00;96278.84;5077744;28;19962;-83
2022/11/24 11:31:04;;;;;;;;;;;;;;;7.63;100.00;96277.63;5076451;28;19951;-82
2022/11/24 11:33:31;;;;;;;;;;;;;;;7.85;100.00;96278.19;5094160;28;19986;-84
2022/11/24 11:35:59;;;;;;;;;;;;;;;8.02;100.00;96274.16;5095315;28;19958;-83
2022/11/24 11:38:31;;;;;;;;;;;;;;;8.22;100.00;96283.72;5094450;28;19963;-84
2022/11/24 11:40:57;;;;;;;;;;;;;;;8.36;100.00;96279.22;5095484;28;19963;-83
2022/11/24 11:43:25;;;;;;;;;;;;;;;8.47;100.00;96279.41;5094110;28;19952;-83
2022/11/24 11:46:17;;;;;;;;;;;;;;;8.63;100.00;96283.38;5095103;28;20396;-83
2022/11/24 11:48:45;;;;;;;;;;;;;;;8.78;99.26;96283.09;5091315;28;19956;-83
2022/11/24 11:51:31;;;;;;;;;;;;;;;8.76;97.96;96281.66;5095099;28;19951;-83
2022/11/24 11:54:00;;;;;;;;;;;;;;;8.77;95.70;96283.28;5093717;28;19970;-82
2022/11/24 11:56:29;;;;;;;;;;;;;;;8.86;93.39;96271.56;5077358;28;19949;-82
2022/11/24 11:59:05;;;;;;;;;;;;;;;9.02;95.75;96291.19;5094977;28;19947;-82
2022/11/24 12:01:30;;;;;;;;;;;;;;;9.12;94.09;96287.06;5094034;28;19947;-82
2022/11/24 12:04:08;;;;;;;;;;;;;;;9.20;93.31;96282.59;5094926;28;19953;-82
2022/11/24 12:06:57;;;;;;;;;;;;;;;9.27;92.50;96280.75;5093676;28;20421;-82
2022/11/24 12:09:31;;;;;;;;;;;;;;;9.28;85.72;96251.75;5087604;28;19945;-82
2022/11/24 12:12:14;;;;;;;;;;;;;;;9.31;90.75;96284.53;5095331;28;19944;-82
2022/11/24 12:14:45;;;;;;;;;;;;;;;9.39;89.43;96297.34;5093486;28;20335;-81
2022/11/24 12:17:26;;;;;;;;;;;;;;;9.36;82.44;96248.03;5093627;28;19970;-81
2022/11/24 12:19:58;;;;;;;;;;;;;;;9.23;86.00;96290.03;5095060;28;19973;-81
2022/11/24 12:22:32;;;;;;;;;;;;;;;9.24;86.26;96286.38;5093260;28;19960;-81
2022/11/24 12:25:16;;;;;;;;;;;;;;;9.24;85.41;96281.97;5093450;28;19958;-81
2022/11/24 12:27:48;;;;;;;;;;;;;;;9.22;87.65;96304.09;5076412;28;19979;-80
2022/11/24 12:30:19;;;;;;;;;;;;;;;9.17;87.23;96301.34;5076187;28;19954;-81
2022/11/24 12:32:59;;;;;;;;;;;;;;;9.08;84.48;96295.56;5094528;28;19947;-81
2022/11/24 12:35:26;;;;;;;;;;;;;;;8.98;85.75;96303.88;5094550;28;20442;-80
2022/11/24 12:38:04;;;;;;;;;;;;;;;8.91;82.02;96272.53;5094400;28;19970;-80
2022/11/24 12:40:49;;;;;;;;;;;;;;;8.88;86.51;96308.75;5093463;28;19953;-80
2022/11/24 12:43:14;;;;;;;;;;;;;;;8.92;86.02;96300.31;5079984;28;19957;-80
2022/11/24 12:45:53;;;;;;;;;;;;;;;9.06;83.59;96276.66;5094340;28;19949;-80
2022/11/24 12:48:26;;;;;;;;;;;;;;;9.08;84.02;96275.44;5112642;28;19971;-79
2022/11/24 12:50:53;;;;;;;;;;;;;;;9.14;83.41;96269.34;5094351;28;20409;-80
2022/11/24 12:53:38;;;;;;;;;;;;;;;9.18;86.05;96297.72;5092809;28;19955;-80
2022/11/24 12:56:05;;;;;;;;;;;;;;;9.17;87.90;96314.41;5094135;28;19951;-80